Time;durP1;ratioP1;P1;durP2;ratioP2;P2;SDS_P1;SDS_P2;PMS_P1;PMS_P2;Temp;Humidity;BMP_temperature;BMP_pressure;BME280_temperature;BME280_humidity;BME280_pressure;Samples;Min_cycle;Max_cycle;Signal;HPM_P1;HPM_P2
2023/12/14 00:00:02;;;;;;;1999.90;999.90;;;6.80;99.90;;;;;;5049958;28;20409;-77
2023/12/14 00:02:29;;;;;;;1999.90;999.90;;;6.70;99.90;;;;;;5049766;28;20430;-76
2023/12/14 00:04:55;;;;;;;1999.90;999.90;;;6.70;99.90;;;;;;5048497;28;20409;-75
2023/12/14 00:07:22;;;;;;;1999.90;999.90;;;6.60;99.90;;;;;;5048679;28;20413;-75
2023/12/14 00:09:49;;;;;;;1999.90;999.90;;;6.60;99.90;;;;;;5046861;28;20429;-77
2023/12/14 00:12:17;;;;;;;1999.90;999.90;;;6.80;99.90;;;;;;5050072;28;20956;-77
2023/12/14 00:14:43;;;;;;;1999.90;999.90;;;6.80;99.90;;;;;;5050579;28;20416;-76
2023/12/14 00:17:10;;;;;;;1999.90;999.90;;;6.80;99.90;;;;;;5052532;28;20459;-74
2023/12/14 00:19:37;;;;;;;1999.90;999.90;;;6.80;99.90;;;;;;5052526;28;20428;-76
2023/12/14 00:22:04;;;;;;;1999.90;999.90;;;6.70;99.90;;;;;;5055095;28;20927;-77
2023/12/14 00:24:30;;;;;;;1999.90;999.90;;;6.70;99.90;;;;;;5052491;28;20470;-76
2023/12/14 00:26:57;;;;;;;1999.90;999.90;;;6.60;99.90;;;;;;5051504;28;20417;-74
2023/12/14 00:29:25;;;;;;;1999.90;999.90;;;6.60;99.90;;;;;;5051604;28;20413;-76
2023/12/14 00:31:52;;;;;;;1999.90;999.90;;;6.50;99.90;;;;;;5050446;28;20409;-76
2023/12/14 00:34:18;;;;;;;1999.90;999.90;;;6.30;99.90;;;;;;5049827;28;20413;-74
2023/12/14 00:36:45;;;;;;;1999.90;999.90;;;6.40;99.90;;;;;;5049951;28;20486;-74
2023/12/14 00:39:12;;;;;;;1999.90;999.90;;;6.50;99.90;;;;;;5049923;28;20961;-76
2023/12/14 00:41:39;;;;;;;1999.90;999.90;;;6.40;99.90;;;;;;5049851;28;20429;-73
2023/12/14 00:44:05;;;;;;;1999.90;999.90;;;6.40;99.90;;;;;;5047883;28;20416;-76
2023/12/14 00:46:33;;;;;;;1999.90;999.90;;;6.50;99.90;;;;;;5050317;28;20421;-74
2023/12/14 00:49:01;;;;;;;1999.90;999.90;;;6.50;99.90;;;;;;5050555;28;20475;-74
2023/12/14 00:51:28;;;;;;;1999.90;999.90;;;6.50;99.90;;;;;;5047442;28;20432;-74
2023/12/14 00:53:55;;;;;;;1999.90;999.90;;;6.40;99.90;;;;;;5049972;28;20448;-76
2023/12/14 00:56:22;;;;;;;1999.90;999.90;;;6.50;99.90;;;;;;5050125;28;20413;-76
2023/12/14 00:58:48;;;;;;;1999.90;999.90;;;6.60;99.90;;;;;;5049503;28;20421;-73
2023/12/14 01:01:15;;;;;;;1999.90;999.90;;;6.50;99.90;;;;;;5049854;28;20433;-74
2023/12/14 01:03:43;;;;;;;1999.90;999.90;;;6.60;99.90;;;;;;5051397;28;20491;-75
2023/12/14 01:06:10;;;;;;;1999.90;999.90;;;6.50;99.90;;;;;;5045584;28;20487;-75
2023/12/14 01:08:36;;;;;;;1999.90;999.90;;;6.40;99.90;;;;;;5048516;28;20845;-74
2023/12/14 01:11:03;;;;;;;1999.90;999.90;;;6.40;99.90;;;;;;5049661;28;20417;-76
2023/12/14 01:13:30;;;;;;;1999.90;999.90;;;6.40;99.90;;;;;;5049314;28;21209;-76
2023/12/14 01:15:56;;;;;;;1999.90;999.90;;;6.40;99.90;;;;;;5050124;28;20658;-76
2023/12/14 01:18:24;;;;;;;1999.90;999.90;;;6.50;99.90;;;;;;5048572;28;20489;-75
2023/12/14 01:20:52;;;;;;;1999.90;999.90;;;6.40;99.90;;;;;;5051126;28;20421;-77
2023/12/14 01:23:19;;;;;;;1999.90;999.90;;;6.30;99.90;;;;;;5051485;28;20887;-77
2023/12/14 01:25:46;;;;;;;1999.90;999.90;;;6.20;99.90;;;;;;5053511;28;20412;-77
2023/12/14 01:28:13;;;;;;;1999.90;999.90;;;6.10;99.90;;;;;;5054275;28;20469;-75
2023/12/14 01:30:40;;;;;;;1999.90;999.90;;;6.10;99.90;;;;;;5052506;28;20486;-75
2023/12/14 01:33:07;;;;;;;1999.90;999.90;;;6.10;99.90;;;;;;5053031;28;20410;-75
2023/12/14 01:35:33;;;;;;;1999.90;999.90;;;6.10;99.90;;;;;;5053238;28;20422;-76
2023/12/14 01:38:01;;;;;;;1999.90;999.90;;;6.10;99.90;;;;;;5052521;28;20410;-75
2023/12/14 01:40:28;;;;;;;1999.90;999.90;;;6.00;99.90;;;;;;5053015;28;20410;-76
2023/12/14 01:42:55;;;;;;;1999.90;999.90;;;6.00;99.90;;;;;;5053111;28;20483;-76
2023/12/14 01:45:21;;;;;;;1999.90;999.90;;;6.10;99.90;;;;;;5051208;28;20433;-76
2023/12/14 01:47:48;;;;;;;1999.90;999.90;;;6.10;99.90;;;;;;5052761;28;20475;-75
2023/12/14 01:50:15;;;;;;;1999.90;999.90;;;6.10;99.90;;;;;;5052923;28;20417;-75
2023/12/14 01:52:41;;;;;;;1999.90;999.90;;;6.10;99.90;;;;;;5052709;28;20895;-75
2023/12/14 01:55:09;;;;;;;1999.90;999.90;;;6.10;99.90;;;;;;5052925;28;20425;-76
2023/12/14 01:57:36;;;;;;;1999.90;999.90;;;6.10;99.90;;;;;;5050830;28;20979;-74
2023/12/14 02:00:03;;;;;;;1999.90;999.90;;;6.10;99.90;;;;;;5049117;28;20426;-76
2023/12/14 02:02:29;;;;;;;1999.90;999.90;;;6.10;99.90;;;;;;5050509;28;21019;-76
2023/12/14 02:04:56;;;;;;;1999.90;999.90;;;6.20;99.90;;;;;;5050836;28;20413;-77
2023/12/14 02:07:23;;;;;;;1999.90;999.90;;;6.10;99.90;;;;;;5051055;28;20413;-75
2023/12/14 02:09:50;;;;;;;1999.90;999.90;;;6.20;99.90;;;;;;5053187;28;20425;-75
2023/12/14 02:12:19;;;;;;;1999.90;999.90;;;6.30;99.90;;;;;;5053765;28;20413;-73
2023/12/14 02:14:45;;;;;;;1999.90;999.90;;;6.30;99.90;;;;;;5055402;28;20521;-74
2023/12/14 02:17:12;;;;;;;1999.90;999.90;;;6.30;99.90;;;;;;5060155;28;20818;-77
2023/12/14 02:19:39;;;;;;;1999.90;999.90;;;6.20;99.90;;;;;;5054750;28;20417;-75
2023/12/14 02:22:20;;;;;;;1999.90;999.90;;;6.10;99.90;;;;;;5054536;28;20426;-74
2023/12/14 02:24:49;;;;;;;1999.90;999.90;;;6.00;99.90;;;;;;5050427;28;20430;-76
2023/12/14 02:27:15;;;;;;;1999.90;999.90;;;5.90;99.90;;;;;;5050620;28;20433;-75
2023/12/14 02:29:42;;;;;;;1999.90;999.90;;;6.00;99.90;;;;;;5053908;28;20414;-75
2023/12/14 02:32:09;;;;;;;1999.90;999.90;;;6.00;99.90;;;;;;5054090;28;20418;-77
2023/12/14 02:34:36;;;;;;;1999.90;999.90;;;6.00;99.90;;;;;;5054420;28;21000;-76
2023/12/14 02:37:02;;;;;;;1999.90;999.90;;;5.90;99.90;;;;;;5054566;28;20417;-75
2023/12/14 02:39:29;;;;;;;1999.90;999.90;;;5.90;99.90;;;;;;5053654;28;20406;-77
2023/12/14 02:41:57;;;;;;;1999.90;999.90;;;5.80;99.90;;;;;;5053588;28;20436;-76
2023/12/14 02:44:24;;;;;;;1999.90;999.90;;;5.90;99.90;;;;;;5042772;28;20429;-76
2023/12/14 02:46:50;;;;;;;1999.90;999.90;;;5.90;99.90;;;;;;5055774;28;20479;-76
2023/12/14 02:49:17;;;;;;;1999.90;999.90;;;5.90;99.90;;;;;;5054738;28;20417;-73
2023/12/14 02:51:44;;;;;;;1999.90;999.90;;;5.90;99.90;;;;;;5055931;28;20421;-76
2023/12/14 02:54:10;;;;;;;1999.90;999.90;;;5.90;99.90;;;;;;5057746;28;20463;-75
2023/12/14 02:56:37;;;;;;;1999.90;999.90;;;5.90;99.90;;;;;;5057215;28;20413;-77
2023/12/14 02:59:05;;;;;;;1999.90;999.90;;;5.90;99.90;;;;;;5048274;28;20429;-76
2023/12/14 03:01:32;;;;;;;1999.90;999.90;;;5.80;99.90;;;;;;5053629;28;20421;-76
2023/12/14 03:03:58;;;;;;;1999.90;999.90;;;5.90;99.90;;;;;;5054188;28;20957;-75
2023/12/14 03:06:25;;;;;;;1999.90;999.90;;;5.90;99.90;;;;;;5057542;28;20488;-76
2023/12/14 03:08:51;;;;;;;1999.90;999.90;;;5.80;99.90;;;;;;5057039;28;20887;-76
2023/12/14 03:11:25;;;;;;;1999.90;999.90;;;5.70;99.90;;;;;;5055740;28;20445;-77
2023/12/14 03:13:52;;;;;;;1999.90;999.90;;;5.70;99.90;;;;;;5051892;28;20455;-74
2023/12/14 03:16:20;;;;;;;1999.90;999.90;;;5.70;99.90;;;;;;5055807;28;20421;-76
2023/12/14 03:18:52;;;;;;;1999.90;999.90;;;5.70;99.90;;;;;;5058489;28;20409;-75
2023/12/14 03:21:18;;;;;;;1999.90;999.90;;;5.60;99.90;;;;;;5059784;28;20445;-74
2023/12/14 03:23:46;;;;;;;1999.90;999.90;;;5.50;99.90;;;;;;5059284;28;20487;-75
2023/12/14 03:26:12;;;;;;;1999.90;999.90;;;5.50;99.90;;;;;;5058917;28;20445;-75
2023/12/14 03:28:39;;;;;;;1999.90;999.90;;;5.40;99.90;;;;;;5054602;28;20433;-75
2023/12/14 03:31:06;;;;;;;1999.90;999.90;;;5.40;99.90;;;;;;5056783;28;20413;-75
2023/12/14 03:33:34;;;;;;;1999.90;999.90;;;5.40;99.90;;;;;;5056347;28;20468;-76
2023/12/14 03:36:00;;;;;;;1999.90;999.90;;;5.30;99.90;;;;;;5056611;28;20455;-76
2023/12/14 03:38:27;;;;;;;1999.90;999.90;;;5.30;99.90;;;;;;5053312;28;20505;-76
2023/12/14 03:40:54;;;;;;;1999.90;999.90;;;5.30;99.90;;;;;;5048771;28;20434;-76
2023/12/14 03:43:21;;;;;;;1999.90;999.90;;;5.30;99.90;;;;;;5053919;28;20452;-77
2023/12/14 03:45:47;;;;;;;1999.90;999.90;;;5.30;99.90;;;;;;5052752;28;20418;-75
2023/12/14 03:48:14;;;;;;;1999.90;999.90;;;5.40;99.90;;;;;;5054436;28;20409;-74
2023/12/14 03:50:42;;;;;;;1999.90;999.90;;;5.40;99.90;;;;;;5056890;28;20417;-75
2023/12/14 03:53:09;;;;;;;1999.90;999.90;;;5.30;99.90;;;;;;5056764;28;20444;-75
2023/12/14 03:55:35;;;;;;;1999.90;999.90;;;5.20;99.90;;;;;;5055562;28;20443;-74
2023/12/14 03:58:02;;;;;;;1999.90;999.90;;;5.20;99.90;;;;;;5053460;28;20471;-74
2023/12/14 04:00:29;;;;;;;1999.90;999.90;;;5.20;99.90;;;;;;5053709;28;20418;-75
2023/12/14 04:02:56;;;;;;;1999.90;999.90;;;5.20;99.90;;;;;;5052846;28;20835;-76
2023/12/14 04:05:23;;;;;;;1999.90;999.90;;;5.30;99.90;;;;;;5053614;28;20417;-76
2023/12/14 04:07:51;;;;;;;1999.90;999.90;;;5.30;99.90;;;;;;5053286;28;20409;-75
2023/12/14 04:10:18;;;;;;;1999.90;999.90;;;5.30;99.90;;;;;;5053626;28;20429;-73
2023/12/14 04:12:44;;;;;;;1999.90;999.90;;;5.20;99.90;;;;;;5055133;28;20413;-77
2023/12/14 04:15:11;;;;;;;1999.90;999.90;;;5.10;99.90;;;;;;5054225;28;20475;-75
2023/12/14 04:17:38;;;;;;;1999.90;999.90;;;5.20;99.90;;;;;;5054590;28;20413;-76
2023/12/14 04:20:07;;;;;;;1999.90;999.90;;;5.10;99.90;;;;;;5052589;28;21081;-76
2023/12/14 04:22:33;;;;;;;1999.90;999.90;;;5.10;99.90;;;;;;5052547;28;20483;-76
2023/12/14 04:25:01;;;;;;;1999.90;999.90;;;5.10;99.90;;;;;;5050678;28;20830;-78
2023/12/14 04:27:29;;;;;;;1999.90;999.90;;;5.10;99.90;;;;;;5053927;28;20413;-77
2023/12/14 04:29:56;;;;;;;1999.90;999.90;;;5.20;99.90;;;;;;5053505;28;20417;-77
2023/12/14 04:32:22;;;;;;;1999.90;999.90;;;5.20;99.90;;;;;;5052429;28;20401;-77
2023/12/14 04:34:48;;;;;;;1999.90;999.90;;;5.10;99.90;;;;;;5052418;28;20538;-75
2023/12/14 04:37:15;;;;;;;1999.90;999.90;;;5.20;99.90;;;;;;5052366;28;20425;-76
2023/12/14 04:39:42;;;;;;;1999.90;999.90;;;5.10;99.90;;;;;;5050428;28;20460;-77
2023/12/14 04:42:10;;;;;;;1999.90;999.90;;;5.20;99.90;;;;;;5051493;28;20472;-76
2023/12/14 04:44:36;;;;;;;1999.90;999.90;;;5.10;99.90;;;;;;5051687;28;20420;-77
2023/12/14 04:47:03;;;;;;;1999.90;999.90;;;5.20;99.90;;;;;;5053083;28;20830;-74
2023/12/14 04:49:30;;;;;;;1999.90;999.90;;;5.20;99.90;;;;;;5055119;28;20455;-76
2023/12/14 04:51:56;;;;;;;1999.90;999.90;;;5.10;99.90;;;;;;5054559;28;20474;-77
2023/12/14 04:54:23;;;;;;;1999.90;999.90;;;5.00;99.90;;;;;;5051725;28;20427;-75
2023/12/14 04:56:50;;;;;;;1999.90;999.90;;;5.00;99.90;;;;;;5052893;28;20413;-78
2023/12/14 04:59:18;;;;;;;1999.90;999.90;;;5.00;99.90;;;;;;5053377;28;20467;-76
2023/12/14 05:02:03;;;;;;;1999.90;999.90;;;5.00;99.90;;;;;;5056813;28;20420;-77
2023/12/14 05:04:30;;;;;;;1999.90;999.90;;;5.10;99.90;;;;;;5053362;28;20895;-76
2023/12/14 05:06:57;;;;;;;1999.90;999.90;;;5.10;99.90;;;;;;5052952;28;20434;-77
2023/12/14 05:09:23;;;;;;;1999.90;999.90;;;5.10;99.90;;;;;;5056617;28;20440;-77
2023/12/14 05:11:50;;;;;;;1999.90;999.90;;;5.00;99.90;;;;;;5057658;28;20421;-76
2023/12/14 05:14:18;;;;;;;1999.90;999.90;;;5.00;99.90;;;;;;5056528;28;20409;-74
2023/12/14 05:16:45;;;;;;;1999.90;999.90;;;5.00;99.90;;;;;;5059815;28;20887;-77
2023/12/14 05:19:12;;;;;;;1999.90;999.90;;;4.90;99.90;;;;;;5056193;28;20903;-78
2023/12/14 05:21:39;;;;;;;1999.90;999.90;;;4.90;99.90;;;;;;5056615;28;20464;-75
2023/12/14 05:24:06;;;;;;;1999.90;999.90;;;4.90;99.90;;;;;;5056660;28;20483;-74
2023/12/14 05:26:33;;;;;;;1999.90;999.90;;;5.00;99.90;;;;;;5057887;28;20409;-74
2023/12/14 05:29:00;;;;;;;1999.90;999.90;;;4.90;99.90;;;;;;5056545;28;20421;-75
2023/12/14 05:31:28;;;;;;;1999.90;999.90;;;5.00;99.90;;;;;;5056918;28;20413;-75
2023/12/14 05:33:55;;;;;;;1999.90;999.90;;;4.90;99.90;;;;;;5058722;28;20421;-75
2023/12/14 05:36:21;;;;;;;1999.90;999.90;;;4.90;99.90;;;;;;5058473;28;20433;-74
2023/12/14 05:38:48;;;;;;;1999.90;999.90;;;4.90;99.90;;;;;;5058686;28;20443;-75
2023/12/14 05:41:15;;;;;;;1999.90;999.90;;;4.80;99.90;;;;;;5057541;28;20471;-75
2023/12/14 05:43:42;;;;;;;1999.90;999.90;;;4.80;99.90;;;;;;5057246;28;20506;-77
2023/12/14 05:46:08;;;;;;;1999.90;999.90;;;4.80;99.90;;;;;;5056669;28;20413;-75
2023/12/14 05:48:38;;;;;;;1999.90;999.90;;;4.90;99.90;;;;;;5055830;28;20443;-76
2023/12/14 05:51:05;;;;;;;1999.90;999.90;;;4.90;99.90;;;;;;5054534;28;20857;-76
2023/12/14 05:53:36;;;;;;;1999.90;999.90;;;4.90;99.90;;;;;;5058192;28;20410;-75
2023/12/14 05:56:03;;;;;;;1999.90;999.90;;;4.90;99.90;;;;;;5057520;28;20911;-76
2023/12/14 05:58:30;;;;;;;1999.90;999.90;;;4.80;99.90;;;;;;5056776;28;20436;-77
2023/12/14 06:00:56;;;;;;;1999.90;999.90;;;4.80;99.90;;;;;;5057211;28;20426;-76
2023/12/14 06:03:23;;;;;;;1999.90;999.90;;;4.70;99.90;;;;;;5057009;28;20451;-76
2023/12/14 06:05:51;;;;;;;1999.90;999.90;;;4.70;99.90;;;;;;5056154;28;20437;-77
2023/12/14 06:08:18;;;;;;;1999.90;999.90;;;4.70;99.90;;;;;;5057554;28;20413;-76
2023/12/14 06:10:44;;;;;;;1999.90;999.90;;;4.70;99.90;;;;;;5061111;28;20440;-76
2023/12/14 06:13:11;;;;;;;1999.90;999.90;;;4.80;99.90;;;;;;5060043;28;20416;-76
2023/12/14 06:15:38;;;;;;;1999.90;999.90;;;5.20;99.90;;;;;;5056487;28;20412;-73
2023/12/14 06:18:05;;;;;;;1999.90;999.90;;;4.70;99.90;;;;;;5049571;28;20444;-79
2023/12/14 06:20:32;;;;;;;1999.90;999.90;;;4.60;99.90;;;;;;5057799;28;20830;-77
2023/12/14 06:23:00;;;;;;;1999.90;999.90;;;4.50;99.90;;;;;;5057825;28;20429;-76
2023/12/14 06:25:27;;;;;;;1999.90;999.90;;;4.50;99.90;;;;;;5053893;28;20495;-77
2023/12/14 06:27:54;;;;;;;1999.90;999.90;;;4.50;99.90;;;;;;5058017;28;20421;-73
2023/12/14 06:30:21;;;;;;;1999.90;999.90;;;4.50;99.90;;;;;;5056446;28;20435;-72
2023/12/14 06:32:47;;;;;;;1999.90;999.90;;;4.50;99.90;;;;;;5054280;28;20461;-75
2023/12/14 06:35:14;;;;;;;1999.90;999.90;;;4.50;99.90;;;;;;5053380;28;20416;-77
2023/12/14 06:37:42;;;;;;;1999.90;999.90;;;4.60;99.90;;;;;;5056398;28;20487;-77
2023/12/14 06:40:11;;;;;;;1999.90;999.90;;;4.70;99.90;;;;;;5059015;28;20410;-77
2023/12/14 06:42:38;;;;;;;1999.90;999.90;;;4.70;99.90;;;;;;5057758;28;20413;-76
2023/12/14 06:45:06;;;;;;;1999.90;999.90;;;4.70;99.90;;;;;;5059715;28;20409;-77
2023/12/14 06:47:32;;;;;;;1999.90;999.90;;;4.60;99.90;;;;;;5051971;28;20428;-77
2023/12/14 06:49:59;;;;;;;1999.90;999.90;;;4.60;99.90;;;;;;5055579;28;20413;-76
2023/12/14 06:52:26;;;;;;;1999.90;999.90;;;4.70;99.90;;;;;;5051613;28;20416;-76
2023/12/14 06:54:52;;;;;;;1999.90;999.90;;;4.70;99.90;;;;;;5058468;28;20448;-74
2023/12/14 06:57:20;;;;;;;1999.90;999.90;;;4.70;99.90;;;;;;5057832;28;20417;-71
2023/12/14 06:59:47;;;;;;;1999.90;999.90;;;4.70;99.90;;;;;;5059038;28;20428;-74
2023/12/14 07:02:13;;;;;;;1999.90;999.90;;;4.70;99.90;;;;;;5055685;28;20486;-76
2023/12/14 07:04:40;;;;;;;1999.90;999.90;;;4.60;99.90;;;;;;5054758;28;20478;-76
2023/12/14 07:07:07;;;;;;;1999.90;999.90;;;4.70;99.90;;;;;;5055634;28;20412;-78
2023/12/14 07:09:33;;;;;;;1999.90;999.90;;;4.70;99.90;;;;;;5055597;28;20409;-79
2023/12/14 07:12:02;;;;;;;1999.90;999.90;;;4.60;99.90;;;;;;5052578;28;20413;-75
2023/12/14 07:14:30;;;;;;;1999.90;999.90;;;4.70;99.90;;;;;;5053477;28;20558;-77
2023/12/14 07:16:57;;;;;;;1999.90;999.90;;;4.80;99.90;;;;;;5051101;28;20941;-77
2023/12/14 07:19:23;;;;;;;1999.90;999.90;;;4.70;99.90;;;;;;5053256;28;20495;-75
2023/12/14 07:21:50;;;;;;;1999.90;999.90;;;4.60;99.90;;;;;;5055981;28;20413;-77
2023/12/14 07:24:17;;;;;;;1999.90;999.90;;;4.50;99.90;;;;;;5057377;28;20487;-75
2023/12/14 07:26:44;;;;;;;1999.90;999.90;;;4.50;99.90;;;;;;5055529;28;20409;-76
2023/12/14 07:29:10;;;;;;;1999.90;999.90;;;4.50;99.90;;;;;;5054380;28;20444;-75
2023/12/14 07:31:38;;;;;;;1999.90;999.90;;;4.40;99.90;;;;;;5054933;28;20917;-77
2023/12/14 07:34:05;;;;;;;1999.90;999.90;;;4.40;99.90;;;;;;5052491;28;20883;-80
2023/12/14 07:36:32;;;;;;;1999.90;999.90;;;4.40;99.90;;;;;;5052871;28;20409;-73
2023/12/14 07:39:00;;;;;;;1999.90;999.90;;;4.50;99.90;;;;;;5052281;28;20807;-77
2023/12/14 07:41:29;;;;;;;1999.90;999.90;;;4.50;99.90;;;;;;5052380;28;20417;-80
2023/12/14 07:43:56;;;;;;;1999.90;999.90;;;4.50;99.90;;;;;;5052712;28;20466;-75
2023/12/14 07:46:23;;;;;;;1999.90;999.90;;;4.50;99.90;;;;;;5050671;28;20455;-77
2023/12/14 07:48:51;;;;;;;1999.90;999.90;;;4.50;99.90;;;;;;5053033;28;20489;-77
2023/12/14 07:51:18;;;;;;;1999.90;999.90;;;4.60;99.90;;;;;;5052448;28;20440;-75
2023/12/14 07:53:46;;;;;;;1999.90;999.90;;;4.60;99.90;;;;;;5052840;28;20504;-77
2023/12/14 07:56:13;;;;;;;1999.90;999.90;;;4.60;99.90;;;;;;5056996;28;20415;-76
2023/12/14 07:58:39;;;;;;;1999.90;999.90;;;4.60;99.90;;;;;;5055126;28;20887;-75
2023/12/14 08:01:07;;;;;;;1999.90;999.90;;;4.60;99.90;;;;;;5052446;28;20429;-75
2023/12/14 08:03:34;;;;;;;1999.90;999.90;;;4.70;99.90;;;;;;5054293;28;20429;-75
2023/12/14 08:06:02;;;;;;;1999.90;999.90;;;4.70;99.90;;;;;;5057901;28;20429;-75
2023/12/14 08:08:29;;;;;;;1999.90;999.90;;;4.60;99.90;;;;;;5054497;28;20418;-74
2023/12/14 08:10:55;;;;;;;1999.90;999.90;;;4.60;99.90;;;;;;5055316;28;20414;-76
2023/12/14 08:13:22;;;;;;;1999.90;999.90;;;4.60;99.90;;;;;;5053043;28;20478;-75
2023/12/14 08:15:48;;;;;;;1999.90;999.90;;;4.60;99.90;;;;;;5054349;28;20417;-76
2023/12/14 08:18:15;;;;;;;1999.90;999.90;;;4.60;99.90;;;;;;5050726;28;20853;-77
2023/12/14 08:20:42;;;;;;;1999.90;999.90;;;4.70;99.90;;;;;;5055504;28;20895;-75
2023/12/14 08:23:10;;;;;;;1999.90;999.90;;;4.70;99.90;;;;;;5057512;28;20500;-74
2023/12/14 08:25:36;;;;;;;1999.90;999.90;;;4.60;99.90;;;;;;5057486;28;20421;-73
2023/12/14 08:28:03;;;;;;;1999.90;999.90;;;4.50;99.90;;;;;;5056142;28;20413;-75
2023/12/14 08:30:30;;;;;;;1999.90;999.90;;;4.50;99.90;;;;;;5054826;28;20508;-74
2023/12/14 08:32:57;;;;;;;1999.90;999.90;;;4.60;99.90;;;;;;5047862;28;20879;-75
2023/12/14 08:35:24;;;;;;;1999.90;999.90;;;4.60;99.90;;;;;;5056265;28;20919;-76
2023/12/14 08:37:51;;;;;;;1999.90;999.90;;;4.60;99.90;;;;;;5058572;28;20992;-76
2023/12/14 08:40:19;;;;;;;1999.90;999.90;;;4.50;99.90;;;;;;5058668;28;20413;-76
2023/12/14 08:42:47;;;;;;;1999.90;999.90;;;4.50;99.90;;;;;;5056698;28;20417;-75
2023/12/14 08:45:14;;;;;;;1999.90;999.90;;;4.40;99.90;;;;;;5056855;28;20425;-74
2023/12/14 08:47:41;;;;;;;1999.90;999.90;;;4.50;99.90;;;;;;5057743;28;20425;-75
2023/12/14 08:50:08;;;;;;;1999.90;999.90;;;4.50;99.90;;;;;;5058257;28;20498;-75
2023/12/14 08:52:35;;;;;;;1999.90;999.90;;;4.50;99.90;;;;;;5058213;28;20409;-77
2023/12/14 08:55:02;;;;;;;1999.90;999.90;;;4.50;99.90;;;;;;5056532;28;20417;-76
2023/12/14 08:57:30;;;;;;;1999.90;999.90;;;4.50;99.90;;;;;;5056459;28;20433;-76
2023/12/14 08:59:57;;;;;;;1999.90;999.90;;;4.60;99.90;;;;;;5056939;28;20413;-77
2023/12/14 09:02:24;;;;;;;1999.90;999.90;;;4.60;99.90;;;;;;5054704;28;20436;-76
2023/12/14 09:04:51;;;;;;;1999.90;999.90;;;4.60;99.90;;;;;;5054583;28;20903;-78
2023/12/14 09:07:18;;;;;;;1999.90;999.90;;;4.70;99.90;;;;;;5056021;28;20475;-76
2023/12/14 09:09:45;;;;;;;1999.90;999.90;;;4.70;99.90;;;;;;5055960;28;20420;-73
2023/12/14 09:12:12;;;;;;;1999.90;999.90;;;4.70;99.90;;;;;;5055619;28;20961;-76
2023/12/14 09:14:40;;;;;;;1999.90;999.90;;;4.70;99.90;;;;;;5055677;28;20508;-75
2023/12/14 09:17:07;;;;;;;1999.90;999.90;;;4.70;99.90;;;;;;5053456;28;20498;-77
2023/12/14 09:19:34;;;;;;;1999.90;999.90;;;4.70;99.90;;;;;;5055627;28;20418;-75
2023/12/14 09:22:00;;;;;;;1999.90;999.90;;;4.80;99.90;;;;;;5056567;28;20417;-75
2023/12/14 09:24:27;;;;;;;1999.90;999.90;;;4.70;99.90;;;;;;5055526;28;20422;-75
2023/12/14 09:26:54;;;;;;;1999.90;999.90;;;4.70;99.90;;;;;;5055230;28;20409;-71
2023/12/14 09:29:21;;;;;;;1999.90;999.90;;;4.60;99.90;;;;;;5055116;28;20417;-75
2023/12/14 09:31:50;;;;;;;1999.90;999.90;;;4.60;99.90;;;;;;5051007;28;20874;-76
2023/12/14 09:34:17;;;;;;;1999.90;999.90;;;4.60;99.90;;;;;;5055221;28;20436;-74
2023/12/14 09:36:44;;;;;;;1999.90;999.90;;;4.60;99.90;;;;;;5056707;28;20803;-71
2023/12/14 09:39:11;;;;;;;1999.90;999.90;;;4.60;99.90;;;;;;5056831;28;20424;-71
2023/12/14 09:41:38;;;;;;;1999.90;999.90;;;4.60;99.90;;;;;;5055953;28;20417;-75
2023/12/14 09:44:05;;;;;;;1999.90;999.90;;;4.50;99.90;;;;;;5056835;28;20453;-75
2023/12/14 09:46:34;;;;;;;1999.90;999.90;;;4.60;99.90;;;;;;5057311;28;20484;-71
2023/12/14 09:49:04;;;;;;;1999.90;999.90;;;4.50;99.90;;;;;;5058358;28;20918;-74
2023/12/14 09:51:31;;;;;;;1999.90;999.90;;;4.50;99.90;;;;;;5058159;28;20413;-75
2023/12/14 09:53:58;;;;;;;1999.90;999.90;;;4.50;99.90;;;;;;5060632;28;20501;-76
2023/12/14 09:56:25;;;;;;;1999.90;999.90;;;4.60;99.90;;;;;;5059461;28;20462;-77
2023/12/14 09:58:51;;;;;;;1999.90;999.90;;;4.50;99.90;;;;;;5057910;28;20914;-77
2023/12/14 10:01:25;;;;;;;1999.90;999.90;;;4.50;99.90;;;;;;5054809;28;20440;-77
2023/12/14 10:04:09;;;;;;;1999.90;999.90;;;4.60;99.90;;;;;;5057087;28;20417;-77
2023/12/14 10:06:36;;;;;;;1999.90;999.90;;;4.60;99.90;;;;;;5050052;28;20409;-77
2023/12/14 10:09:04;;;;;;;1999.90;999.90;;;4.70;99.90;;;;;;5057434;28;20482;-73
2023/12/14 10:11:30;;;;;;;1999.90;999.90;;;4.60;99.90;;;;;;5060828;28;20483;-75
2023/12/14 10:13:57;;;;;;;1999.90;999.90;;;4.60;99.90;;;;;;5059791;28;20447;-74
2023/12/14 10:16:31;;;;;;;1999.90;999.90;;;4.60;99.90;;;;;;5058796;28;20409;-75
2023/12/14 10:18:58;;;;;;;1999.90;999.90;;;4.60;99.90;;;;;;5057075;28;20526;-77
2023/12/14 10:21:27;;;;;;;1999.90;999.90;;;4.60;99.90;;;;;;5057408;28;20417;-76
2023/12/14 10:23:56;;;;;;;1999.90;999.90;;;4.60;99.90;;;;;;5056568;28;20437;-75
2023/12/14 10:26:24;;;;;;;1999.90;999.90;;;4.60;99.90;;;;;;5053380;28;21062;-76
2023/12/14 10:28:51;;;;;;;1999.90;999.90;;;4.60;99.90;;;;;;5057506;28;20471;-74
2023/12/14 10:31:19;;;;;;;1999.90;999.90;;;4.60;99.90;;;;;;5056426;28;20429;-72
2023/12/14 10:33:46;;;;;;;1999.90;999.90;;;4.50;99.90;;;;;;5053851;28;20507;-75
2023/12/14 10:36:14;;;;;;;1999.90;999.90;;;4.60;99.90;;;;;;5053649;28;20419;-76
2023/12/14 10:38:44;;;;;;;1999.90;999.90;;;4.60;99.90;;;;;;5057769;28;20502;-72
2023/12/14 10:41:14;;;;;;;1999.90;999.90;;;4.70;99.90;;;;;;5057643;28;20513;-75
2023/12/14 10:43:43;;;;;;;1999.90;999.90;;;4.60;99.90;;;;;;5054054;28;20426;-74
2023/12/14 10:46:11;;;;;;;1999.90;999.90;;;4.50;99.90;;;;;;5056496;28;20522;-74
2023/12/14 10:48:41;;;;;;;1999.90;999.90;;;4.50;99.90;;;;;;5057275;28;20423;-74
2023/12/14 10:51:08;;;;;;;1999.90;999.90;;;4.50;99.90;;;;;;5056725;28;20424;-76
2023/12/14 10:53:36;;;;;;;1999.90;999.90;;;4.50;99.90;;;;;;5055165;28;20572;-76
2023/12/14 10:56:09;;;;;;;1999.90;999.90;;;4.60;99.90;;;;;;5053797;28;20412;-77
2023/12/14 10:58:47;;;;;;;1999.90;999.90;;;4.70;99.90;;;;;;5046019;28;20505;-78
2023/12/14 11:01:15;;;;;;;1999.90;999.90;;;4.60;99.90;;;;;;5055552;28;21168;-76
2023/12/14 11:03:43;;;;;;;1999.90;999.90;;;4.60;99.90;;;;;;5050033;28;20522;-75
2023/12/14 11:06:22;;;;;;;1999.90;999.90;;;4.60;99.90;;;;;;5045498;28;20462;-76
2023/12/14 11:08:49;;;;;;;1999.90;999.90;;;4.60;99.90;;;;;;5053496;28;20535;-75
2023/12/14 11:11:20;;;;;;;1999.90;999.90;;;4.70;99.90;;;;;;5056657;28;20435;-75
2023/12/14 11:13:49;;;;;;;1999.90;999.90;;;4.70;99.90;;;;;;5054245;28;20428;-79
2023/12/14 11:16:16;;;;;;;1999.90;999.90;;;4.70;99.90;;;;;;5053864;28;20409;-76
2023/12/14 11:18:42;;;;;;;1999.90;999.90;;;4.80;99.90;;;;;;5046266;28;20501;-75
2023/12/14 11:21:09;;;;;;;1999.90;999.90;;;4.80;99.90;;;;;;5054131;28;20417;-75
2023/12/14 11:23:38;;;;;;;1999.90;999.90;;;4.70;99.90;;;;;;5048340;28;20425;-75
2023/12/14 11:26:06;;;;;;;1999.90;999.90;;;4.70;99.90;;;;;;5051842;28;20446;-75
2023/12/14 11:28:36;;;;;;;1999.90;999.90;;;4.70;99.90;;;;;;5046152;28;20438;-75
2023/12/14 11:31:06;;;;;;;1999.90;999.90;;;4.60;99.90;;;;;;5047085;28;20431;-74
2023/12/14 11:33:33;;;;;;;1999.90;999.90;;;4.50;99.90;;;;;;5045031;28;20431;-74
2023/12/14 11:36:00;;;;;;;1999.90;999.90;;;4.50;99.90;;;;;;5042152;28;21143;-76
2023/12/14 11:38:28;;;;;;;1999.90;999.90;;;4.50;99.90;;;;;;5042275;28;20930;-77
2023/12/14 11:40:54;;;;;;;1999.90;999.90;;;4.50;99.90;;;;;;5036012;28;20506;-74
2023/12/14 11:43:21;;;;;;;1999.90;999.90;;;4.60;99.90;;;;;;5057510;28;20417;-75
2023/12/14 11:45:50;;;;;;;1999.90;999.90;;;4.60;99.90;;;;;;5055388;28;20421;-74
2023/12/14 11:48:16;;;;;;;1999.90;999.90;;;4.60;99.90;;;;;;5046908;28;20433;-75
2023/12/14 11:50:44;;;;;;;1999.90;999.90;;;4.60;99.90;;;;;;5048569;28;20433;-74
2023/12/14 11:53:12;;;;;;;1999.90;999.90;;;4.50;99.90;;;;;;5056710;28;20484;-74
2023/12/14 11:55:40;;;;;;;1999.90;999.90;;;4.50;99.90;;;;;;5053129;28;21299;-76
2023/12/14 11:58:07;;;;;;;1999.90;999.90;;;4.50;99.90;;;;;;5051284;28;20418;-75
2023/12/14 12:00:36;;;;;;;1999.90;999.90;;;4.60;99.90;;;;;;5054916;28;20473;-74
2023/12/14 12:03:12;;;;;;;1999.90;999.90;;;4.60;99.90;;;;;;5054874;28;20838;-72
2023/12/14 12:05:40;;;;;;;1999.90;999.90;;;4.50;99.90;;;;;;5052885;28;20428;-75
2023/12/14 12:08:07;;;;;;;1999.90;999.90;;;4.50;99.90;;;;;;5055099;28;20440;-75